sensor_id;sensor_type;location;lat;lon;timestamp;P1;durP1;ratioP1;P2;durP2;ratioP2
78783;SDS011;68127;51.050;14.084;2024-03-02T00:00:08;26.92;;;16.52;;
78783;SDS011;68127;51.050;14.084;2024-03-02T00:02:41;23.27;;;15.95;;
78783;SDS011;68127;51.050;14.084;2024-03-02T00:05:07;24.52;;;16.75;;
78783;SDS011;68127;51.050;14.084;2024-03-02T00:07:33;26.52;;;16.55;;
78783;SDS011;68127;51.050;14.084;2024-03-02T00:09:58;25.17;;;17.38;;
78783;SDS011;68127;51.050;14.084;2024-03-02T00:12:23;23.92;;;16.30;;
78783;SDS011;68127;51.050;14.084;2024-03-02T00:14:49;24.60;;;15.82;;
78783;SDS011;68127;51.050;14.084;2024-03-02T00:17:17;23.60;;;15.73;;
78783;SDS011;68127;51.050;14.084;2024-03-02T00:19:49;23.52;;;15.93;;
78783;SDS011;68127;51.050;14.084;2024-03-02T00:22:15;24.85;;;16.20;;
78783;SDS011;68127;51.050;14.084;2024-03-02T00:24:40;25.65;;;17.42;;
78783;SDS011;68127;51.050;14.084;2024-03-02T00:27:05;23.58;;;15.68;;
78783;SDS011;68127;51.050;14.084;2024-03-02T00:29:32;22.15;;;15.07;;
78783;SDS011;68127;51.050;14.084;2024-03-02T00:31:57;23.75;;;15.70;;
78783;SDS011;68127;51.050;14.084;2024-03-02T00:34:23;24.27;;;15.73;;
78783;SDS011;68127;51.050;14.084;2024-03-02T00:36:48;24.27;;;15.02;;
78783;SDS011;68127;51.050;14.084;2024-03-02T00:39:14;24.10;;;17.10;;
78783;SDS011;68127;51.050;14.084;2024-03-02T00:41:41;23.63;;;15.73;;
78783;SDS011;68127;51.050;14.084;2024-03-02T00:44:12;23.10;;;15.95;;
78783;SDS011;68127;51.050;14.084;2024-03-02T00:46:38;22.55;;;16.08;;
78783;SDS011;68127;51.050;14.084;2024-03-02T00:49:05;23.70;;;15.10;;
78783;SDS011;68127;51.050;14.084;2024-03-02T00:51:35;23.27;;;15.55;;
78783;SDS011;68127;51.050;14.084;2024-03-02T00:54:02;23.45;;;15.20;;
78783;SDS011;68127;51.050;14.084;2024-03-02T00:56:29;24.08;;;15.98;;
78783;SDS011;68127;51.050;14.084;2024-03-02T00:58:55;25.30;;;15.35;;
78783;SDS011;68127;51.050;14.084;2024-03-02T01:01:21;21.95;;;15.45;;
78783;SDS011;68127;51.050;14.084;2024-03-02T01:03:46;26.10;;;16.65;;
78783;SDS011;68127;51.050;14.084;2024-03-02T01:06:11;24.27;;;16.33;;
78783;SDS011;68127;51.050;14.084;2024-03-02T01:08:37;23.67;;;16.40;;
78783;SDS011;68127;51.050;14.084;2024-03-02T01:11:03;25.20;;;15.70;;
78783;SDS011;68127;51.050;14.084;2024-03-02T01:13:28;27.00;;;16.13;;
78783;SDS011;68127;51.050;14.084;2024-03-02T01:15:54;24.70;;;15.68;;
78783;SDS011;68127;51.050;14.084;2024-03-02T01:18:19;25.35;;;16.77;;
78783;SDS011;68127;51.050;14.084;2024-03-02T01:20:44;25.55;;;17.20;;
78783;SDS011;68127;51.050;14.084;2024-03-02T01:23:09;25.25;;;17.05;;
78783;SDS011;68127;51.050;14.084;2024-03-02T01:25:35;24.70;;;16.05;;
78783;SDS011;68127;51.050;14.084;2024-03-02T01:28:00;27.40;;;16.92;;
78783;SDS011;68127;51.050;14.084;2024-03-02T01:30:26;24.42;;;15.98;;
78783;SDS011;68127;51.050;14.084;2024-03-02T01:32:51;25.67;;;17.33;;
78783;SDS011;68127;51.050;14.084;2024-03-02T01:35:16;25.30;;;17.00;;
78783;SDS011;68127;51.050;14.084;2024-03-02T01:37:41;24.95;;;16.90;;
78783;SDS011;68127;51.050;14.084;2024-03-02T01:40:07;26.48;;;18.25;;
78783;SDS011;68127;51.050;14.084;2024-03-02T01:42:35;25.17;;;16.83;;
78783;SDS011;68127;51.050;14.084;2024-03-02T01:45:01;27.13;;;16.95;;
78783;SDS011;68127;51.050;14.084;2024-03-02T01:47:27;26.38;;;17.77;;
78783;SDS011;68127;51.050;14.084;2024-03-02T01:49:52;23.83;;;16.45;;
78783;SDS011;68127;51.050;14.084;2024-03-02T01:52:17;26.02;;;16.95;;
78783;SDS011;68127;51.050;14.084;2024-03-02T01:54:42;29.33;;;17.83;;
78783;SDS011;68127;51.050;14.084;2024-03-02T01:57:08;28.50;;;17.63;;
78783;SDS011;68127;51.050;14.084;2024-03-02T01:59:33;28.95;;;18.17;;
78783;SDS011;68127;51.050;14.084;2024-03-02T02:01:58;29.58;;;17.00;;
78783;SDS011;68127;51.050;14.084;2024-03-02T02:04:24;25.45;;;16.73;;
78783;SDS011;68127;51.050;14.084;2024-03-02T02:06:52;28.08;;;18.20;;
78783;SDS011;68127;51.050;14.084;2024-03-02T02:09:18;26.67;;;16.60;;
78783;SDS011;68127;51.050;14.084;2024-03-02T02:11:43;26.50;;;17.48;;
78783;SDS011;68127;51.050;14.084;2024-03-02T02:14:08;25.08;;;16.30;;
78783;SDS011;68127;51.050;14.084;2024-03-02T02:16:34;24.77;;;16.00;;
78783;SDS011;68127;51.050;14.084;2024-03-02T02:18:59;26.40;;;16.92;;
78783;SDS011;68127;51.050;14.084;2024-03-02T02:21:24;25.33;;;16.40;;
78783;SDS011;68127;51.050;14.084;2024-03-02T02:23:50;25.80;;;16.63;;
78783;SDS011;68127;51.050;14.084;2024-03-02T02:26:15;25.27;;;17.00;;
78783;SDS011;68127;51.050;14.084;2024-03-02T02:28:40;26.20;;;16.92;;
78783;SDS011;68127;51.050;14.084;2024-03-02T02:31:13;27.48;;;16.50;;
78783;SDS011;68127;51.050;14.084;2024-03-02T02:33:40;25.67;;;15.82;;
78783;SDS011;68127;51.050;14.084;2024-03-02T02:36:05;23.83;;;16.27;;
78783;SDS011;68127;51.050;14.084;2024-03-02T02:38:31;25.65;;;16.65;;
78783;SDS011;68127;51.050;14.084;2024-03-02T02:40:58;25.42;;;16.15;;
78783;SDS011;68127;51.050;14.084;2024-03-02T02:43:23;25.55;;;15.95;;
78783;SDS011;68127;51.050;14.084;2024-03-02T02:45:48;30.52;;;16.88;;
78783;SDS011;68127;51.050;14.084;2024-03-02T02:48:14;26.90;;;16.55;;
78783;SDS011;68127;51.050;14.084;2024-03-02T02:50:39;28.17;;;17.30;;
78783;SDS011;68127;51.050;14.084;2024-03-02T02:53:05;34.05;;;18.13;;
78783;SDS011;68127;51.050;14.084;2024-03-02T02:55:31;31.92;;;17.85;;
78783;SDS011;68127;51.050;14.084;2024-03-02T02:57:56;34.35;;;19.08;;
78783;SDS011;68127;51.050;14.084;2024-03-02T03:00:21;41.25;;;20.23;;
78783;SDS011;68127;51.050;14.084;2024-03-02T03:02:48;34.50;;;19.25;;
78783;SDS011;68127;51.050;14.084;2024-03-02T03:05:14;34.97;;;18.30;;
78783;SDS011;68127;51.050;14.084;2024-03-02T03:07:40;33.60;;;19.48;;
78783;SDS011;68127;51.050;14.084;2024-03-02T03:10:06;35.40;;;18.70;;
78783;SDS011;68127;51.050;14.084;2024-03-02T03:12:32;35.55;;;19.05;;
78783;SDS011;68127;51.050;14.084;2024-03-02T03:14:58;32.20;;;18.58;;
78783;SDS011;68127;51.050;14.084;2024-03-02T03:17:23;39.42;;;20.30;;
78783;SDS011;68127;51.050;14.084;2024-03-02T03:19:49;34.88;;;19.65;;
78783;SDS011;68127;51.050;14.084;2024-03-02T03:22:15;35.67;;;19.63;;
78783;SDS011;68127;51.050;14.084;2024-03-02T03:24:40;34.83;;;18.63;;
78783;SDS011;68127;51.050;14.084;2024-03-02T03:27:05;41.30;;;19.98;;
78783;SDS011;68127;51.050;14.084;2024-03-02T03:29:30;40.88;;;20.67;;
78783;SDS011;68127;51.050;14.084;2024-03-02T03:31:56;39.50;;;20.90;;
78783;SDS011;68127;51.050;14.084;2024-03-02T03:34:21;38.67;;;20.13;;
78783;SDS011;68127;51.050;14.084;2024-03-02T03:36:46;43.42;;;20.42;;
78783;SDS011;68127;51.050;14.084;2024-03-02T03:39:12;37.85;;;19.63;;
78783;SDS011;68127;51.050;14.084;2024-03-02T03:41:37;40.72;;;21.15;;
78783;SDS011;68127;51.050;14.084;2024-03-02T03:44:02;43.75;;;21.27;;
78783;SDS011;68127;51.050;14.084;2024-03-02T03:46:28;41.00;;;22.17;;
78783;SDS011;68127;51.050;14.084;2024-03-02T03:48:54;43.20;;;22.27;;
78783;SDS011;68127;51.050;14.084;2024-03-02T03:51:20;46.17;;;22.40;;
78783;SDS011;68127;51.050;14.084;2024-03-02T03:53:46;41.83;;;21.63;;
78783;SDS011;68127;51.050;14.084;2024-03-02T03:56:12;39.58;;;20.77;;
78783;SDS011;68127;51.050;14.084;2024-03-02T03:58:37;44.67;;;21.55;;
78783;SDS011;68127;51.050;14.084;2024-03-02T04:01:02;41.83;;;21.88;;
78783;SDS011;68127;51.050;14.084;2024-03-02T04:03:28;43.00;;;21.92;;
78783;SDS011;68127;51.050;14.084;2024-03-02T04:05:53;44.35;;;22.75;;
78783;SDS011;68127;51.050;14.084;2024-03-02T04:08:18;47.30;;;23.73;;
78783;SDS011;68127;51.050;14.084;2024-03-02T04:10:43;46.55;;;21.92;;
78783;SDS011;68127;51.050;14.084;2024-03-02T04:13:09;46.42;;;23.08;;
78783;SDS011;68127;51.050;14.084;2024-03-02T04:15:34;43.80;;;22.30;;
78783;SDS011;68127;51.050;14.084;2024-03-02T04:18:00;46.08;;;23.25;;
78783;SDS011;68127;51.050;14.084;2024-03-02T04:20:25;41.90;;;21.23;;
78783;SDS011;68127;51.050;14.084;2024-03-02T04:22:50;43.55;;;22.50;;
78783;SDS011;68127;51.050;14.084;2024-03-02T04:25:15;44.03;;;22.98;;
78783;SDS011;68127;51.050;14.084;2024-03-02T04:27:41;41.95;;;21.08;;
78783;SDS011;68127;51.050;14.084;2024-03-02T04:30:06;40.63;;;21.73;;
78783;SDS011;68127;51.050;14.084;2024-03-02T04:32:32;43.00;;;23.13;;
78783;SDS011;68127;51.050;14.084;2024-03-02T04:34:57;41.38;;;23.23;;
78783;SDS011;68127;51.050;14.084;2024-03-02T04:37:22;42.53;;;22.13;;
78783;SDS011;68127;51.050;14.084;2024-03-02T04:39:47;40.17;;;21.05;;
78783;SDS011;68127;51.050;14.084;2024-03-02T04:42:13;41.38;;;21.33;;
78783;SDS011;68127;51.050;14.084;2024-03-02T04:44:38;36.80;;;20.35;;
78783;SDS011;68127;51.050;14.084;2024-03-02T04:47:04;39.15;;;21.27;;
78783;SDS011;68127;51.050;14.084;2024-03-02T04:49:29;37.65;;;20.70;;
78783;SDS011;68127;51.050;14.084;2024-03-02T04:51:55;37.88;;;20.10;;
78783;SDS011;68127;51.050;14.084;2024-03-02T04:54:20;34.75;;;20.17;;
78783;SDS011;68127;51.050;14.084;2024-03-02T04:56:45;32.70;;;19.55;;
78783;SDS011;68127;51.050;14.084;2024-03-02T04:59:15;40.25;;;20.65;;
78783;SDS011;68127;51.050;14.084;2024-03-02T05:01:41;37.45;;;20.85;;
78783;SDS011;68127;51.050;14.084;2024-03-02T05:04:06;47.42;;;26.67;;
78783;SDS011;68127;51.050;14.084;2024-03-02T05:06:31;44.10;;;24.55;;
78783;SDS011;68127;51.050;14.084;2024-03-02T05:08:57;42.40;;;22.73;;
78783;SDS011;68127;51.050;14.084;2024-03-02T05:11:22;39.85;;;21.85;;
78783;SDS011;68127;51.050;14.084;2024-03-02T05:14:15;46.95;;;23.20;;
78783;SDS011;68127;51.050;14.084;2024-03-02T05:16:40;41.65;;;21.55;;
78783;SDS011;68127;51.050;14.084;2024-03-02T05:19:06;41.53;;;22.30;;
78783;SDS011;68127;51.050;14.084;2024-03-02T05:21:32;44.42;;;21.80;;
78783;SDS011;68127;51.050;14.084;2024-03-02T05:23:58;44.53;;;23.58;;
78783;SDS011;68127;51.050;14.084;2024-03-02T05:26:23;45.17;;;22.35;;
78783;SDS011;68127;51.050;14.084;2024-03-02T05:28:48;45.42;;;23.50;;
78783;SDS011;68127;51.050;14.084;2024-03-02T05:31:18;45.63;;;23.35;;
78783;SDS011;68127;51.050;14.084;2024-03-02T05:33:44;45.72;;;22.95;;
78783;SDS011;68127;51.050;14.084;2024-03-02T05:36:09;46.25;;;22.10;;
78783;SDS011;68127;51.050;14.084;2024-03-02T05:38:34;44.30;;;22.83;;
78783;SDS011;68127;51.050;14.084;2024-03-02T05:40:59;48.95;;;22.80;;
78783;SDS011;68127;51.050;14.084;2024-03-02T05:43:25;51.30;;;23.23;;
78783;SDS011;68127;51.050;14.084;2024-03-02T05:45:50;49.97;;;24.38;;
78783;SDS011;68127;51.050;14.084;2024-03-02T05:48:15;49.20;;;24.13;;
78783;SDS011;68127;51.050;14.084;2024-03-02T05:50:40;48.10;;;23.52;;
78783;SDS011;68127;51.050;14.084;2024-03-02T05:53:06;46.50;;;23.08;;
78783;SDS011;68127;51.050;14.084;2024-03-02T05:55:31;54.13;;;25.33;;
78783;SDS011;68127;51.050;14.084;2024-03-02T05:57:56;49.20;;;23.45;;
78783;SDS011;68127;51.050;14.084;2024-03-02T06:00:31;48.33;;;23.35;;
78783;SDS011;68127;51.050;14.084;2024-03-02T06:02:56;44.75;;;23.45;;
78783;SDS011;68127;51.050;14.084;2024-03-02T06:05:22;50.28;;;24.55;;
78783;SDS011;68127;51.050;14.084;2024-03-02T06:07:47;52.03;;;24.83;;
78783;SDS011;68127;51.050;14.084;2024-03-02T06:10:12;48.58;;;24.10;;
78783;SDS011;68127;51.050;14.084;2024-03-02T06:12:37;45.90;;;24.77;;
78783;SDS011;68127;51.050;14.084;2024-03-02T06:15:03;50.05;;;24.08;;
78783;SDS011;68127;51.050;14.084;2024-03-02T06:17:28;51.08;;;24.70;;
78783;SDS011;68127;51.050;14.084;2024-03-02T06:19:54;48.42;;;24.13;;
78783;SDS011;68127;51.050;14.084;2024-03-02T06:22:19;54.38;;;26.00;;
78783;SDS011;68127;51.050;14.084;2024-03-02T06:24:44;52.83;;;24.45;;
78783;SDS011;68127;51.050;14.084;2024-03-02T06:27:09;50.53;;;24.92;;
78783;SDS011;68127;51.050;14.084;2024-03-02T06:29:35;53.33;;;25.70;;
78783;SDS011;68127;51.050;14.084;2024-03-02T06:32:00;51.28;;;25.52;;
78783;SDS011;68127;51.050;14.084;2024-03-02T06:34:32;55.90;;;25.35;;
78783;SDS011;68127;51.050;14.084;2024-03-02T06:36:57;51.72;;;25.38;;
78783;SDS011;68127;51.050;14.084;2024-03-02T06:39:22;49.88;;;24.52;;
78783;SDS011;68127;51.050;14.084;2024-03-02T06:41:47;56.30;;;25.52;;
78783;SDS011;68127;51.050;14.084;2024-03-02T06:44:13;55.33;;;25.60;;
78783;SDS011;68127;51.050;14.084;2024-03-02T06:46:38;52.88;;;26.80;;
78783;SDS011;68127;51.050;14.084;2024-03-02T06:49:03;54.97;;;26.05;;
78783;SDS011;68127;51.050;14.084;2024-03-02T06:51:29;55.00;;;25.48;;
78783;SDS011;68127;51.050;14.084;2024-03-02T06:53:54;51.25;;;23.70;;
78783;SDS011;68127;51.050;14.084;2024-03-02T06:56:20;50.45;;;24.33;;
78783;SDS011;68127;51.050;14.084;2024-03-02T06:58:45;51.25;;;24.65;;
78783;SDS011;68127;51.050;14.084;2024-03-02T07:01:11;50.17;;;23.48;;
78783;SDS011;68127;51.050;14.084;2024-03-02T07:03:36;47.13;;;23.58;;
78783;SDS011;68127;51.050;14.084;2024-03-02T07:06:01;45.15;;;23.45;;
78783;SDS011;68127;51.050;14.084;2024-03-02T07:08:28;53.38;;;25.83;;
78783;SDS011;68127;51.050;14.084;2024-03-02T07:10:53;49.78;;;23.98;;
78783;SDS011;68127;51.050;14.084;2024-03-02T07:13:18;53.25;;;24.67;;
78783;SDS011;68127;51.050;14.084;2024-03-02T07:15:43;52.33;;;23.55;;
78783;SDS011;68127;51.050;14.084;2024-03-02T07:18:35;48.05;;;24.42;;
78783;SDS011;68127;51.050;14.084;2024-03-02T07:21:05;49.72;;;23.10;;
78783;SDS011;68127;51.050;14.084;2024-03-02T07:23:31;47.20;;;23.63;;
78783;SDS011;68127;51.050;14.084;2024-03-02T07:25:56;45.70;;;23.05;;
78783;SDS011;68127;51.050;14.084;2024-03-02T07:28:22;52.25;;;22.98;;
78783;SDS011;68127;51.050;14.084;2024-03-02T07:30:57;44.33;;;21.27;;
78783;SDS011;68127;51.050;14.084;2024-03-02T07:33:26;49.72;;;24.35;;
78783;SDS011;68127;51.050;14.084;2024-03-02T07:35:51;47.38;;;23.45;;
78783;SDS011;68127;51.050;14.084;2024-03-02T07:41:37;42.55;;;21.88;;
78783;SDS011;68127;51.050;14.084;2024-03-02T07:44:03;48.95;;;24.50;;
78783;SDS011;68127;51.050;14.084;2024-03-02T07:46:28;50.53;;;24.42;;
78783;SDS011;68127;51.050;14.084;2024-03-02T07:48:53;44.75;;;23.77;;
78783;SDS011;68127;51.050;14.084;2024-03-02T07:51:19;47.50;;;22.45;;
78783;SDS011;68127;51.050;14.084;2024-03-02T07:53:44;47.88;;;22.67;;
78783;SDS011;68127;51.050;14.084;2024-03-02T07:56:09;49.28;;;22.80;;
78783;SDS011;68127;51.050;14.084;2024-03-02T07:58:34;44.67;;;22.48;;
78783;SDS011;68127;51.050;14.084;2024-03-02T08:01:00;45.47;;;23.58;;
78783;SDS011;68127;51.050;14.084;2024-03-02T08:03:26;43.33;;;22.70;;
78783;SDS011;68127;51.050;14.084;2024-03-02T08:05:51;49.63;;;24.33;;
78783;SDS011;68127;51.050;14.084;2024-03-02T08:08:16;46.78;;;22.48;;
78783;SDS011;68127;51.050;14.084;2024-03-02T08:10:42;40.05;;;19.98;;
78783;SDS011;68127;51.050;14.084;2024-03-02T08:13:07;44.58;;;21.75;;
78783;SDS011;68127;51.050;14.084;2024-03-02T08:15:32;48.35;;;23.00;;
78783;SDS011;68127;51.050;14.084;2024-03-02T08:17:58;41.83;;;20.83;;
78783;SDS011;68127;51.050;14.084;2024-03-02T08:20:23;45.20;;;21.23;;
78783;SDS011;68127;51.050;14.084;2024-03-02T08:22:48;42.35;;;21.55;;
78783;SDS011;68127;51.050;14.084;2024-03-02T08:25:14;41.38;;;20.35;;
78783;SDS011;68127;51.050;14.084;2024-03-02T08:27:40;40.03;;;20.85;;
78783;SDS011;68127;51.050;14.084;2024-03-02T08:30:06;38.92;;;20.30;;
78783;SDS011;68127;51.050;14.084;2024-03-02T08:32:33;35.95;;;19.30;;
78783;SDS011;68127;51.050;14.084;2024-03-02T08:34:58;39.03;;;19.55;;
78783;SDS011;68127;51.050;14.084;2024-03-02T08:37:23;37.63;;;19.80;;
78783;SDS011;68127;51.050;14.084;2024-03-02T08:39:49;38.20;;;20.60;;
78783;SDS011;68127;51.050;14.084;2024-03-02T08:42:14;38.60;;;18.85;;
78783;SDS011;68127;51.050;14.084;2024-03-02T08:44:40;39.47;;;19.65;;
78783;SDS011;68127;51.050;14.084;2024-03-02T08:47:05;36.50;;;18.70;;
78783;SDS011;68127;51.050;14.084;2024-03-02T08:49:30;38.83;;;19.13;;
78783;SDS011;68127;51.050;14.084;2024-03-02T08:51:56;40.80;;;21.05;;
78783;SDS011;68127;51.050;14.084;2024-03-02T08:54:21;44.03;;;26.58;;
78783;SDS011;68127;51.050;14.084;2024-03-02T08:56:47;38.75;;;22.27;;
78783;SDS011;68127;51.050;14.084;2024-03-02T08:59:13;38.60;;;21.17;;
78783;SDS011;68127;51.050;14.084;2024-03-02T09:01:38;44.17;;;21.98;;
78783;SDS011;68127;51.050;14.084;2024-03-02T09:04:06;86.43;;;25.52;;
78783;SDS011;68127;51.050;14.084;2024-03-02T09:06:32;44.72;;;19.98;;
78783;SDS011;68127;51.050;14.084;2024-03-02T09:08:57;35.13;;;18.30;;
78783;SDS011;68127;51.050;14.084;2024-03-02T09:11:23;34.22;;;17.13;;
78783;SDS011;68127;51.050;14.084;2024-03-02T09:13:48;35.30;;;17.88;;
78783;SDS011;68127;51.050;14.084;2024-03-02T09:16:14;32.67;;;18.15;;
78783;SDS011;68127;51.050;14.084;2024-03-02T09:18:39;34.03;;;18.30;;
78783;SDS011;68127;51.050;14.084;2024-03-02T09:21:04;32.85;;;17.73;;
78783;SDS011;68127;51.050;14.084;2024-03-02T09:23:30;30.42;;;17.13;;
78783;SDS011;68127;51.050;14.084;2024-03-02T09:25:55;29.92;;;16.85;;
78783;SDS011;68127;51.050;14.084;2024-03-02T09:28:20;31.58;;;17.73;;
78783;SDS011;68127;51.050;14.084;2024-03-02T09:30:45;30.98;;;17.42;;
78783;SDS011;68127;51.050;14.084;2024-03-02T09:33:11;32.50;;;17.15;;
78783;SDS011;68127;51.050;14.084;2024-03-02T09:35:36;26.70;;;15.10;;
78783;SDS011;68127;51.050;14.084;2024-03-02T09:38:01;29.90;;;16.23;;
78783;SDS011;68127;51.050;14.084;2024-03-02T09:40:28;27.65;;;15.13;;
78783;SDS011;68127;51.050;14.084;2024-03-02T09:42:53;25.85;;;14.57;;
78783;SDS011;68127;51.050;14.084;2024-03-02T09:45:23;21.42;;;13.55;;
78783;SDS011;68127;51.050;14.084;2024-03-02T09:47:49;25.80;;;14.38;;
78783;SDS011;68127;51.050;14.084;2024-03-02T09:50:15;29.98;;;14.70;;
78783;SDS011;68127;51.050;14.084;2024-03-02T09:52:42;26.00;;;14.75;;
78783;SDS011;68127;51.050;14.084;2024-03-02T09:55:08;25.40;;;13.90;;
78783;SDS011;68127;51.050;14.084;2024-03-02T09:57:33;29.60;;;14.80;;
78783;SDS011;68127;51.050;14.084;2024-03-02T09:59:58;32.17;;;15.45;;
78783;SDS011;68127;51.050;14.084;2024-03-02T10:02:23;26.80;;;14.57;;
78783;SDS011;68127;51.050;14.084;2024-03-02T10:04:49;28.95;;;15.45;;
78783;SDS011;68127;51.050;14.084;2024-03-02T10:07:15;26.80;;;14.25;;
78783;SDS011;68127;51.050;14.084;2024-03-02T10:09:41;30.77;;;15.35;;
78783;SDS011;68127;51.050;14.084;2024-03-02T10:12:08;26.08;;;15.07;;
78783;SDS011;68127;51.050;14.084;2024-03-02T10:14:34;26.77;;;15.10;;
78783;SDS011;68127;51.050;14.084;2024-03-02T10:17:06;28.08;;;14.90;;
78783;SDS011;68127;51.050;14.084;2024-03-02T10:22:01;26.35;;;13.88;;
78783;SDS011;68127;51.050;14.084;2024-03-02T10:24:28;25.13;;;14.40;;
78783;SDS011;68127;51.050;14.084;2024-03-02T10:27:01;28.80;;;14.00;;
78783;SDS011;68127;51.050;14.084;2024-03-02T10:29:28;29.23;;;13.85;;
78783;SDS011;68127;51.050;14.084;2024-03-02T10:31:54;26.48;;;14.25;;
78783;SDS011;68127;51.050;14.084;2024-03-02T10:34:21;31.58;;;14.63;;
78783;SDS011;68127;51.050;14.084;2024-03-02T10:36:46;26.48;;;14.45;;
78783;SDS011;68127;51.050;14.084;2024-03-02T10:39:12;30.35;;;17.45;;
78783;SDS011;68127;51.050;14.084;2024-03-02T10:41:38;32.28;;;18.15;;
78783;SDS011;68127;51.050;14.084;2024-03-02T10:44:05;32.70;;;22.05;;
78783;SDS011;68127;51.050;14.084;2024-03-02T10:46:31;33.50;;;20.35;;
78783;SDS011;68127;51.050;14.084;2024-03-02T10:48:58;29.00;;;16.42;;
78783;SDS011;68127;51.050;14.084;2024-03-02T10:51:24;29.98;;;16.77;;
78783;SDS011;68127;51.050;14.084;2024-03-02T10:53:56;31.60;;;20.05;;
78783;SDS011;68127;51.050;14.084;2024-03-02T10:56:22;30.05;;;19.77;;
78783;SDS011;68127;51.050;14.084;2024-03-02T11:01:45;33.50;;;21.17;;
78783;SDS011;68127;51.050;14.084;2024-03-02T11:04:12;34.78;;;23.02;;
78783;SDS011;68127;51.050;14.084;2024-03-02T11:06:37;25.00;;;13.65;;
78783;SDS011;68127;51.050;14.084;2024-03-02T11:09:06;28.42;;;18.20;;
78783;SDS011;68127;51.050;14.084;2024-03-02T11:11:40;28.35;;;16.70;;
78783;SDS011;68127;51.050;14.084;2024-03-02T11:14:07;35.83;;;23.33;;
78783;SDS011;68127;51.050;14.084;2024-03-02T11:16:36;25.73;;;16.42;;
78783;SDS011;68127;51.050;14.084;2024-03-02T11:19:10;29.75;;;19.98;;
78783;SDS011;68127;51.050;14.084;2024-03-02T11:21:37;26.48;;;16.80;;
78783;SDS011;68127;51.050;14.084;2024-03-02T11:26:46;27.02;;;17.90;;
78783;SDS011;68127;51.050;14.084;2024-03-02T11:29:42;27.85;;;18.42;;
78783;SDS011;68127;51.050;14.084;2024-03-02T11:32:00;26.77;;;17.70;;
78783;SDS011;68127;51.050;14.084;2024-03-02T11:36:55;30.75;;;19.25;;
78783;SDS011;68127;51.050;14.084;2024-03-02T11:39:20;30.90;;;16.65;;
78783;SDS011;68127;51.050;14.084;2024-03-02T11:41:45;23.38;;;15.38;;
78783;SDS011;68127;51.050;14.084;2024-03-02T11:44:11;25.92;;;14.07;;
78783;SDS011;68127;51.050;14.084;2024-03-02T11:46:39;38.97;;;27.40;;
78783;SDS011;68127;51.050;14.084;2024-03-02T11:49:04;24.38;;;13.90;;
78783;SDS011;68127;51.050;14.084;2024-03-02T11:51:29;20.52;;;11.98;;
78783;SDS011;68127;51.050;14.084;2024-03-02T11:53:56;192.23;;;57.15;;
78783;SDS011;68127;51.050;14.084;2024-03-02T11:56:22;72.40;;;30.17;;
78783;SDS011;68127;51.050;14.084;2024-03-02T11:58:49;35.28;;;16.83;;
78783;SDS011;68127;51.050;14.084;2024-03-02T12:01:16;28.40;;;14.85;;
78783;SDS011;68127;51.050;14.084;2024-03-02T12:03:41;19.98;;;10.90;;
78783;SDS011;68127;51.050;14.084;2024-03-02T12:06:06;19.70;;;11.40;;
78783;SDS011;68127;51.050;14.084;2024-03-02T12:08:32;19.92;;;12.60;;
78783;SDS011;68127;51.050;14.084;2024-03-02T12:10:58;20.38;;;12.02;;
78783;SDS011;68127;51.050;14.084;2024-03-02T12:13:24;19.10;;;10.80;;
78783;SDS011;68127;51.050;14.084;2024-03-02T12:15:52;17.63;;;10.43;;
78783;SDS011;68127;51.050;14.084;2024-03-02T12:18:18;18.92;;;9.23;;
78783;SDS011;68127;51.050;14.084;2024-03-02T12:20:44;18.85;;;11.98;;
78783;SDS011;68127;51.050;14.084;2024-03-02T12:23:09;20.60;;;11.32;;
78783;SDS011;68127;51.050;14.084;2024-03-02T12:25:35;15.05;;;9.70;;
78783;SDS011;68127;51.050;14.084;2024-03-02T12:28:00;17.40;;;10.82;;
78783;SDS011;68127;51.050;14.084;2024-03-02T12:30:26;16.92;;;8.45;;
78783;SDS011;68127;51.050;14.084;2024-03-02T12:32:54;18.60;;;8.77;;
78783;SDS011;68127;51.050;14.084;2024-03-02T12:35:19;16.48;;;8.80;;
78783;SDS011;68127;51.050;14.084;2024-03-02T12:37:49;18.83;;;9.38;;
78783;SDS011;68127;51.050;14.084;2024-03-02T12:40:16;15.85;;;8.73;;
78783;SDS011;68127;51.050;14.084;2024-03-02T12:42:45;13.50;;;8.07;;
78783;SDS011;68127;51.050;14.084;2024-03-02T12:45:11;16.17;;;7.60;;
78783;SDS011;68127;51.050;14.084;2024-03-02T12:47:37;16.75;;;8.25;;
78783;SDS011;68127;51.050;14.084;2024-03-02T12:50:06;18.73;;;9.10;;
78783;SDS011;68127;51.050;14.084;2024-03-02T12:52:31;13.88;;;7.53;;
78783;SDS011;68127;51.050;14.084;2024-03-02T12:54:57;15.68;;;8.15;;
78783;SDS011;68127;51.050;14.084;2024-03-02T12:57:27;15.00;;;8.48;;
78783;SDS011;68127;51.050;14.084;2024-03-02T13:00:11;16.55;;;8.68;;
78783;SDS011;68127;51.050;14.084;2024-03-02T13:02:39;15.35;;;8.35;;
78783;SDS011;68127;51.050;14.084;2024-03-02T13:05:05;14.45;;;7.90;;
78783;SDS011;68127;51.050;14.084;2024-03-02T13:07:31;18.13;;;9.23;;
78783;SDS011;68127;51.050;14.084;2024-03-02T13:09:58;17.48;;;8.98;;
78783;SDS011;68127;51.050;14.084;2024-03-02T13:12:24;13.82;;;8.95;;
78783;SDS011;68127;51.050;14.084;2024-03-02T13:14:51;16.85;;;9.60;;
78783;SDS011;68127;51.050;14.084;2024-03-02T13:17:17;15.20;;;8.13;;
78783;SDS011;68127;51.050;14.084;2024-03-02T13:19:57;19.98;;;10.00;;
78783;SDS011;68127;51.050;14.084;2024-03-02T13:22:23;18.55;;;8.50;;
78783;SDS011;68127;51.050;14.084;2024-03-02T13:24:52;15.20;;;8.45;;
78783;SDS011;68127;51.050;14.084;2024-03-02T13:27:19;16.83;;;8.88;;
78783;SDS011;68127;51.050;14.084;2024-03-02T13:29:48;16.10;;;8.48;;
78783;SDS011;68127;51.050;14.084;2024-03-02T13:32:16;18.45;;;9.15;;
78783;SDS011;68127;51.050;14.084;2024-03-02T13:34:42;14.85;;;8.15;;
78783;SDS011;68127;51.050;14.084;2024-03-02T13:37:07;17.88;;;10.75;;
78783;SDS011;68127;51.050;14.084;2024-03-02T13:39:33;36.53;;;17.75;;
78783;SDS011;68127;51.050;14.084;2024-03-02T13:42:04;36.90;;;16.85;;
78783;SDS011;68127;51.050;14.084;2024-03-02T13:44:32;25.80;;;12.35;;
78783;SDS011;68127;51.050;14.084;2024-03-02T13:46:58;22.63;;;10.75;;
78783;SDS011;68127;51.050;14.084;2024-03-02T13:49:24;18.70;;;10.07;;
78783;SDS011;68127;51.050;14.084;2024-03-02T13:51:53;17.48;;;10.38;;
78783;SDS011;68127;51.050;14.084;2024-03-02T13:54:20;17.77;;;9.70;;
78783;SDS011;68127;51.050;14.084;2024-03-02T13:56:45;14.10;;;9.13;;
78783;SDS011;68127;51.050;14.084;2024-03-02T13:59:11;15.38;;;8.98;;
78783;SDS011;68127;51.050;14.084;2024-03-02T14:01:37;16.83;;;8.55;;
78783;SDS011;68127;51.050;14.084;2024-03-02T14:04:02;16.70;;;8.98;;
78783;SDS011;68127;51.050;14.084;2024-03-02T14:06:28;16.38;;;8.80;;
78783;SDS011;68127;51.050;14.084;2024-03-02T14:08:53;19.38;;;9.32;;
78783;SDS011;68127;51.050;14.084;2024-03-02T14:11:18;16.13;;;9.23;;
78783;SDS011;68127;51.050;14.084;2024-03-02T14:13:44;13.00;;;8.45;;
78783;SDS011;68127;51.050;14.084;2024-03-02T14:16:14;17.45;;;8.63;;
78783;SDS011;68127;51.050;14.084;2024-03-02T14:18:39;15.32;;;9.15;;